Time;durP1;ratioP1;P1;durP2;ratioP2;P2;SDS_P1;SDS_P2;PMS_P1;PMS_P2;Temp;Humidity;BMP_temperature;BMP_pressure;BME280_temperature;BME280_humidity;BME280_pressure;Samples;Min_cycle;Max_cycle;Signal;HPM_P1;HPM_P2
2023/08/05 00:01:15;;;;;;;7.30;5.10;;;;;;;20.99;57.49;100162.27;110127;1268;22996;-80
2023/08/05 00:04:27;;;;;;;9.20;5.20;;;;;;;20.93;57.74;100154.27;109203;1273;24070;-82
2023/08/05 00:08:06;;;;;;;13.30;5.30;;;;;;;20.93;57.93;100151.77;109441;1273;21976;-80
2023/08/05 00:11:20;;;;;;;;;;;;;;;;;;;;;
2023/08/05 00:14:18;;;;;;;9.70;5.20;;;;;;;20.90;57.94;100150.91;108852;1282;22014;-79
2023/08/05 00:16:57;;;;;;;9.30;4.30;;;;;;;20.89;58.03;100148.17;108852;1282;21999;-80
2023/08/05 00:20:01;;;;;;;11.70;5.50;;;;;;;20.90;58.08;100150.61;108776;1285;21758;-79
2023/08/05 00:23:48;;;;;;;8.70;4.90;;;;;;;20.91;58.02;100156.37;108676;1280;22005;-80
2023/08/05 00:27:24;;;;;;;6.10;4.30;;;;;;;20.88;58.13;100155.85;108978;1280;22009;-80
2023/08/05 00:30:49;;;;;;;9.00;5.00;;;;;;;20.89;58.28;100150.67;109291;1276;21956;-79
2023/08/05 00:34:02;;;;;;;6.90;4.90;;;;;;;20.88;58.30;100148.09;108999;1282;21989;-80
2023/08/05 00:37:13;;;;;;;8.70;5.10;;;;;;;20.90;58.45;100143.55;109088;1279;23073;-81
2023/08/05 00:39:55;;;;;;;7.60;5.20;;;;;;;20.92;58.42;100143.31;109220;1273;22008;-80
2023/08/05 00:43:33;;;;;;;7.80;5.20;;;;;;;20.88;58.43;100138.34;109583;1272;22002;-79
2023/08/05 00:46:22;;;;;;;7.50;4.80;;;;;;;20.88;58.47;100137.16;109518;1273;21979;-79
2023/08/05 00:49:14;;;;;;;14.40;5.60;;;;;;;20.87;58.67;100130.48;109457;1270;22857;-80
2023/08/05 00:52:08;;;;;;;11.20;5.00;;;;;;;20.85;58.57;100127.46;109631;1272;21987;-81
2023/08/05 00:55:19;;;;;;;10.20;5.20;;;;;;;20.84;58.61;100123.34;109603;1273;23721;-80
2023/08/05 00:58:20;;;;;;;8.90;5.10;;;;;;;20.80;58.59;100120.80;109793;1270;21968;-80
2023/08/05 01:01:22;;;;;;;;;;;;;;;;;;;;;
2023/08/05 01:04:43;;;;;;;7.00;4.70;;;;;;;20.71;58.59;100114.16;110052;1270;21967;-81
2023/08/05 01:07:45;;;;;;;6.40;4.80;;;;;;;20.68;58.57;100105.96;109905;1270;21988;-80
2023/08/05 01:10:41;;;;;;;8.90;5.30;;;;;;;20.67;58.40;100103.35;109946;1264;21964;-82
2023/08/05 01:13:47;;;;;;;;;;;;;;;;;;;;;
2023/08/05 01:16:55;;;;;;;7.50;5.30;;;;;;;20.58;58.37;100106.54;110282;1249;23037;-78
2023/08/05 01:23:07;;;;;;;6.40;4.80;;;;;;;20.58;58.43;100107.42;110279;1268;23030;-80
2023/08/05 01:26:17;;;;;;;8.20;5.30;;;;;;;20.57;58.27;100104.34;110111;1268;22002;-79
2023/08/05 01:29:50;;;;;;;6.60;4.60;;;;;;;20.55;58.03;100097.57;109275;1274;21976;-80
2023/08/05 01:32:28;;;;;;;9.30;4.70;;;;;;;20.57;57.99;100090.58;109351;1273;22002;-79
2023/08/05 01:35:04;;;;;;;7.90;5.00;;;;;;;20.59;57.87;100087.88;108924;1279;23618;-80
2023/08/05 01:37:40;;;;;;;9.50;5.20;;;;;;;20.61;57.76;100089.38;108970;1280;22193;-80
2023/08/05 01:40:32;;;;;;;9.60;4.70;;;;;;;20.60;57.73;100094.55;108865;1279;23762;-79
2023/08/05 01:43:59;;;;;;;9.20;4.30;;;;;;;20.54;57.79;100099.97;108793;1279;23091;-79
2023/08/05 01:50:42;;;;;;;;;;;;;;;;;;;;;
2023/08/05 01:53:53;;;;;;;8.00;4.80;;;;;;;20.46;58.07;100095.35;109210;1275;22029;-80
2023/08/05 01:56:55;;;;;;;7.20;5.30;;;;;;;20.43;58.21;100085.51;109186;1277;23714;-79
2023/08/05 01:59:56;;;;;;;;;;;;;;;;;;;;;
2023/08/05 02:03:01;;;;;;;12.50;5.80;;;;;;;20.45;58.45;100093.29;109741;1271;22205;-81
2023/08/05 02:05:45;;;;;;;16.80;6.50;;;;;;;20.45;58.57;100095.65;109955;1271;23045;-80
2023/08/05 02:08:51;;;;;;;10.30;6.00;;;;;;;20.44;58.90;100092.91;109304;1275;21974;-80
2023/08/05 02:12:03;;;;;;;;;;;;;;;;;;;;;
2023/08/05 02:16:15;;;;;;;11.90;6.50;;;;;;;20.35;59.46;100089.05;109262;1277;24400;-80
2023/08/05 02:19:19;;;;;;;8.60;5.80;;;;;;;20.31;59.76;100082.66;109305;1276;21988;-81
2023/08/05 02:26:01;;;;;;;6.90;5.70;;;;;;;20.21;60.23;100079.41;108690;1282;22016;-81
2023/08/05 02:32:47;;;;;;;11.40;5.90;;;;;;;20.10;60.38;100054.89;108785;1270;22040;-80
2023/08/05 02:36:15;;;;;;;11.40;6.10;;;;;;;20.03;60.35;100046.94;109293;1275;22026;-81
2023/08/05 02:39:23;;;;;;;7.60;5.30;;;;;;;20.02;60.25;100056.77;109126;1273;23651;-79
2023/08/05 02:42:42;;;;;;;8.30;5.30;;;;;;;19.97;60.20;100060.48;109553;1273;22081;-80
2023/08/05 02:45:51;;;;;;;5.50;4.70;;;;;;;19.94;60.16;100062.36;109893;1270;21990;-80
2023/08/05 02:48:44;;;;;;;7.10;5.40;;;;;;;19.95;59.87;100071.48;109243;1276;21977;-82
2023/08/05 02:54:45;;;;;;;6.80;4.60;;;;;;;20.00;59.79;100083.25;109054;1279;21991;-80
2023/08/05 02:57:48;;;;;;;7.10;5.10;;;;;;;20.03;59.63;100082.83;108954;1271;23753;-80
2023/08/05 03:01:07;;;;;;;10.00;5.10;;;;;;;20.03;59.60;100080.54;108984;1279;22001;-80
2023/08/05 03:04:08;;;;;;;8.40;6.30;;;;;;;20.03;59.67;100073.46;108815;1283;22462;-82
2023/08/05 03:07:20;;;;;;;;;;;;;;;20.04;59.71;100073.05;108906;1281;22103;-80
2023/08/05 03:10:18;;;;;;;15.40;9.90;;;;;;;19.96;60.12;100068.57;108901;1281;21988;-80
2023/08/05 03:13:06;;;;;;;15.90;8.80;;;;;;;19.97;60.34;100061.48;108861;1281;23647;-81
2023/08/05 03:15:50;;;;;;;10.60;7.00;;;;;;;19.99;60.33;100059.99;108819;1280;23016;-80
2023/08/05 03:18:30;;;;;;;9.50;6.70;;;;;;;20.01;60.45;100066.40;108968;1276;23724;-81
2023/08/05 03:21:18;;;;;;;10.10;6.70;;;;;;;20.01;60.60;100063.91;109168;1276;22058;-80
2023/08/05 03:24:10;;;;;;;8.90;6.60;;;;;;;20.00;60.70;100061.55;109320;1276;22001;-80
2023/08/05 03:27:23;;;;;;;14.30;8.00;;;;;;;19.96;60.89;100067.85;109250;1272;22134;-80
2023/08/05 03:30:07;;;;;;;9.70;7.60;;;;;;;19.93;60.88;100065.59;109195;1276;22507;-80
2023/08/05 03:32:55;;;;;;;9.70;8.70;;;;;;;19.91;61.05;100059.80;108859;1277;22081;-80
2023/08/05 03:35:31;;;;;;;12.00;9.90;;;;;;;19.89;61.22;100061.55;109483;1268;24905;-80
2023/08/05 03:38:20;;;;;;;13.80;8.30;;;;;;;19.87;61.33;100071.94;109275;1272;23789;-80
2023/08/05 03:41:08;;;;;;;12.70;7.80;;;;;;;19.86;61.50;100075.74;109236;1272;22002;-80
2023/08/05 03:44:01;;;;;;;10.90;9.80;;;;;;;19.84;61.56;100076.23;109332;1272;22765;-80
2023/08/05 03:46:58;;;;;;;19.10;8.90;;;;;;;19.79;61.67;100074.90;109379;1272;24294;-78
2023/08/05 03:49:41;;;;;;;10.80;8.40;;;;;;;19.77;61.87;100074.66;109652;1272;24414;-79
2023/08/05 03:52:29;;;;;;;11.80;8.50;;;;;;;19.77;61.92;100073.41;109657;1268;23036;-80
2023/08/05 03:55:29;;;;;;;9.40;7.40;;;;;;;19.77;62.03;100072.35;109709;1271;23042;-80
2023/08/05 03:58:20;;;;;;;16.00;8.60;;;;;;;19.77;62.19;100073.46;110301;1266;23077;-80
2023/08/05 04:01:14;;;;;;;;;;;;;;;;;;;;;
2023/08/05 04:04:19;;;;;;;14.00;8.10;;;;;;;19.73;62.36;100076.38;109988;1269;23857;-80
2023/08/05 04:07:21;;;;;;;10.90;6.70;;;;;;;19.74;62.39;100081.23;110224;1269;22219;-79
2023/08/05 04:10:01;;;;;;;9.70;6.80;;;;;;;19.74;62.12;100083.38;110170;1263;21975;-79
2023/08/05 04:12:51;;;;;;;14.30;6.20;;;;;;;19.73;62.01;100090.36;110685;1263;21979;-79
2023/08/05 04:15:45;;;;;;;6.50;5.60;;;;;;;19.70;61.96;100093.20;110748;1263;21992;-81
2023/08/05 04:19:08;;;;;;;9.10;6.10;;;;;;;19.66;62.09;100092.62;111036;1256;21958;-78
2023/08/05 04:22:00;;;;;;;13.10;6.30;;;;;;;19.67;62.10;100093.64;111199;1256;21967;-79
2023/08/05 04:24:45;;;;;;;9.60;5.40;;;;;;;19.68;62.10;100095.64;111135;1255;23625;-80
2023/08/05 04:27:35;;;;;;;9.60;5.80;;;;;;;19.67;62.09;100089.52;111215;1256;21981;-80
2023/08/05 04:30:37;;;;;;;9.30;6.30;;;;;;;19.66;62.04;100093.02;111089;1256;21964;-78
2023/08/05 04:33:48;;;;;;;10.60;6.80;;;;;;;19.61;62.31;100092.67;111193;1256;21949;-79
2023/08/05 04:36:25;;;;;;;8.90;6.40;;;;;;;19.60;62.41;100094.55;111057;1256;22077;-78
2023/08/05 04:39:21;;;;;;;8.40;7.60;;;;;;;19.57;62.63;100090.39;110939;1256;23793;-79
2023/08/05 04:42:10;;;;;;;10.40;8.40;;;;;;;19.53;62.92;100088.41;110730;1260;22310;-79
2023/08/05 04:45:00;;;;;;;10.80;7.80;;;;;;;19.50;63.29;100085.13;110730;1260;22115;-78
2023/08/05 04:48:00;;;;;;;11.60;7.90;;;;;;;19.49;63.45;100089.59;110123;1266;23032;-77
2023/08/05 04:50:51;;;;;;;16.40;8.90;;;;;;;19.44;63.81;100091.36;109464;1272;21980;-77
2023/08/05 04:54:14;;;;;;;10.40;8.20;;;;;;;19.39;64.14;100084.55;109477;1273;23714;-79
2023/08/05 04:56:57;;;;;;;12.50;9.00;;;;;;;19.38;64.40;100081.81;109319;1273;23875;-77
2023/08/05 04:59:34;;;;;;;11.10;9.00;;;;;;;19.35;64.38;100079.57;109403;1269;21971;-79
2023/08/05 05:02:24;;;;;;;11.00;9.30;;;;;;;19.30;64.44;100080.85;109273;1274;23764;-77
2023/08/05 05:05:12;;;;;;;11.30;10.00;;;;;;;19.26;64.78;100083.81;109325;1270;21979;-79
2023/08/05 05:07:58;;;;;;;11.10;9.90;;;;;;;19.24;65.05;100094.34;109476;1268;23081;-78
2023/08/05 05:10:49;;;;;;;13.10;9.40;;;;;;;19.24;65.24;100097.69;109466;1270;21971;-78
2023/08/05 05:13:43;;;;;;;12.10;9.30;;;;;;;19.27;65.47;100098.15;109737;1270;21986;-77
2023/08/05 05:16:33;;;;;;;12.10;10.80;;;;;;;19.26;65.57;100093.86;109740;1268;23650;-78
2023/08/05 05:19:23;;;;;;;12.50;9.40;;;;;;;19.26;65.63;100088.69;109796;1262;22002;-78
2023/08/05 05:21:56;;;;;;;11.50;9.40;;;;;;;19.28;65.61;100087.50;110587;1256;21966;-79
2023/08/05 05:24:35;;;;;;;13.60;10.00;;;;;;;19.32;65.68;100086.70;111057;1256;21951;-78
2023/08/05 05:27:18;;;;;;;13.60;9.90;;;;;;;19.35;65.67;100087.90;110938;1255;22822;-78
2023/08/05 05:30:00;;;;;;;11.80;10.20;;;;;;;19.37;65.69;100086.49;110495;1263;23695;-78
2023/08/05 05:32:35;;;;;;;12.40;11.30;;;;;;;19.38;65.57;100085.69;109993;1269;21988;-79
2023/08/05 05:35:05;;;;;;;14.50;9.70;;;;;;;19.38;65.52;100089.95;109590;1269;23762;-78
2023/08/05 05:37:39;;;;;;;11.30;9.60;;;;;;;19.38;65.48;100093.31;109127;1270;21992;-77
2023/08/05 05:40:17;;;;;;;10.60;9.70;;;;;;;19.38;65.45;100094.89;109368;1274;23041;-78
2023/08/05 05:42:55;;;;;;;13.60;10.30;;;;;;;19.39;65.39;100092.35;109291;1274;23815;-77
2023/08/05 05:45:38;;;;;;;10.80;9.80;;;;;;;19.40;65.24;100090.50;109099;1274;23621;-77
2023/08/05 05:48:27;;;;;;;12.50;8.90;;;;;;;19.40;65.27;100086.07;109664;1267;22820;-77
2023/08/05 05:51:00;;;;;;;16.70;11.50;;;;;;;19.41;65.21;100090.75;109501;1270;23033;-76
2023/08/05 05:53:38;;;;;;;10.60;8.80;;;;;;;19.43;65.20;100090.77;109784;1267;21971;-77
2023/08/05 05:56:11;;;;;;;11.40;8.60;;;;;;;19.43;65.13;100081.05;110469;1262;21964;-77
2023/08/05 05:58:43;;;;;;;12.50;10.60;;;;;;;19.42;65.13;100076.75;110478;1262;22021;-76
2023/08/05 06:01:14;;;;;;;13.30;9.40;;;;;;;19.44;65.06;100074.45;110643;1249;23068;-77
2023/08/05 06:03:47;;;;;;;13.60;8.60;;;;;;;19.47;65.14;100077.60;110633;1262;23567;-78
2023/08/05 06:06:17;;;;;;;17.00;14.30;;;;;;;19.49;65.06;100074.38;110675;1262;21966;-80
2023/08/05 06:08:54;;;;;;;15.10;10.00;;;;;;;19.50;64.97;100070.62;110456;1261;23003;-79
2023/08/05 06:11:54;;;;;;;13.10;10.60;;;;;;;19.50;65.03;100063.41;110665;1261;23045;-82
2023/08/05 06:15:30;;;;;;;11.50;8.10;;;;;;;19.48;65.03;100055.43;110595;1260;23577;-80
2023/08/05 06:18:23;;;;;;;18.30;8.80;;;;;;;19.46;65.05;100059.11;110739;1260;22741;-84
2023/08/05 06:21:13;;;;;;;9.20;6.80;;;;;;;19.47;65.14;100065.23;111108;1260;22036;-79
2023/08/05 06:24:13;;;;;;;10.90;7.90;;;;;;;19.48;64.97;100063.17;110976;1260;22002;-80
2023/08/05 06:27:35;;;;;;;14.10;7.50;;;;;;;19.50;64.96;100060.39;110504;1265;22717;-81
2023/08/05 06:30:42;;;;;;;;;;;;;;;;;;;;;
2023/08/05 06:33:19;;;;;;;8.90;7.10;;;;;;;19.59;65.02;100055.39;110424;1264;21966;-79
2023/08/05 06:36:05;;;;;;;12.60;7.30;;;;;;;19.64;65.02;100057.86;109769;1270;22265;-80
2023/08/05 06:38:49;;;;;;;10.70;7.50;;;;;;;19.71;65.12;100072.30;109554;1270;23014;-80
2023/08/05 06:41:26;;;;;;;13.20;8.50;;;;;;;19.78;64.84;100083.64;109237;1275;21979;-80
2023/08/05 06:44:02;;;;;;;14.00;7.70;;;;;;;19.82;64.75;100089.80;109481;1275;23831;-79
2023/08/05 06:47:01;;;;;;;14.80;9.80;;;;;;;19.86;64.62;100090.41;109592;1270;23062;-81
2023/08/05 06:49:53;;;;;;;;;;;;;;;;;;;;;
2023/08/05 06:52:46;;;;;;;10.20;9.00;;;;;;;19.87;64.51;100093.12;109473;1275;22393;-80
2023/08/05 06:55:34;;;;;;;13.10;8.40;;;;;;;19.89;64.46;100096.84;109659;1271;23768;-86
2023/08/05 06:58:25;;;;;;;10.00;8.90;;;;;;;19.92;64.39;100097.70;109459;1272;21847;-84
2023/08/05 07:01:19;;;;;;;10.80;8.20;;;;;;;19.92;64.42;100097.32;110211;1267;21999;-82
2023/08/05 07:04:26;;;;;;;19.70;17.60;;;;;;;19.96;64.46;100098.27;110366;1267;21989;-84
2023/08/05 07:07:19;;;;;;;14.30;9.30;;;;;;;19.96;64.54;100099.44;109719;1271;23752;-83
2023/08/05 07:10:15;;;;;;;11.90;8.60;;;;;;;19.98;64.59;100101.08;109946;1266;21977;-84
2023/08/05 07:13:13;;;;;;;9.10;7.70;;;;;;;20.00;64.62;100099.29;110732;1266;21970;-81
2023/08/05 07:16:10;;;;;;;11.60;8.10;;;;;;;20.02;64.67;100102.88;110411;1260;21959;-83
2023/08/05 07:19:23;;;;;;;11.60;8.00;;;;;;;20.01;64.80;100104.17;111151;1260;21956;-82
2023/08/05 07:22:16;;;;;;;12.10;7.80;;;;;;;20.00;64.77;100102.35;111068;1260;21960;-83
2023/08/05 07:25:58;;;;;;;8.50;7.60;;;;;;;19.99;65.08;100098.86;111189;1256;22099;-85
2023/08/05 07:32:38;;;;;;;13.60;7.80;;;;;;;20.04;65.43;100089.62;111075;1251;22036;-83
2023/08/05 07:35:19;;;;;;;14.20;8.40;;;;;;;20.08;65.32;100088.23;110637;1259;23821;-83
2023/08/05 07:38:23;;;;;;;11.30;8.90;;;;;;;20.11;65.34;100083.77;110276;1262;21971;-79
2023/08/05 07:41:06;;;;;;;11.00;9.20;;;;;;;20.13;65.51;100078.48;110281;1266;21972;-79
2023/08/05 07:43:43;;;;;;;16.00;14.40;;;;;;;20.16;65.45;100073.27;110622;1266;21988;-79
2023/08/05 07:46:25;;;;;;;12.30;10.70;;;;;;;20.19;65.55;100064.18;110530;1265;21999;-82
2023/08/05 07:49:17;;;;;;;11.80;9.30;;;;;;;20.23;65.79;100056.77;110607;1261;22230;-82
2023/08/05 07:52:06;;;;;;;9.80;8.80;;;;;;;20.29;65.81;100051.36;110225;1267;23124;-82
2023/08/05 07:55:06;;;;;;;10.20;7.20;;;;;;;20.36;65.77;100048.27;110715;1263;21993;-83
2023/08/05 07:58:17;;;;;;;12.30;7.20;;;;;;;20.45;65.59;100041.35;110786;1262;21971;-83
2023/08/05 08:01:21;;;;;;;10.60;7.30;;;;;;;20.47;65.27;100034.30;110527;1262;22068;-82
2023/08/05 08:04:27;;;;;;;8.00;6.60;;;;;;;20.51;65.22;100023.75;106459;1252;21960;-84
2023/08/05 08:07:28;;;;;;;8.20;6.00;;;;;;;20.57;65.20;100015.09;110697;1262;21994;-81
2023/08/05 08:10:24;;;;;;;;;;;;;;;;;;;;;
2023/08/05 08:13:21;;;;;;;13.30;6.50;;;;;;;20.77;64.57;100002.48;110297;1261;22133;-82
2023/08/05 08:16:24;;;;;;;8.70;7.00;;;;;;;20.84;64.35;99998.85;110249;1266;22234;-82
2023/08/05 08:19:12;;;;;;;8.60;5.60;;;;;;;20.95;63.97;99996.11;110154;1267;21968;-82
2023/08/05 08:22:00;;;;;;;6.30;5.40;;;;;;;20.98;63.75;99996.02;110244;1267;21999;-83
2023/08/05 08:24:56;;;;;;;7.40;5.30;;;;;;;21.06;63.61;99993.23;110216;1268;22756;-83
2023/08/05 08:27:32;;;;;;;7.90;4.70;;;;;;;21.08;63.12;99989.11;109576;1252;21982;-83
2023/08/05 08:30:10;;;;;;;7.50;5.20;;;;;;;21.14;62.61;99998.90;110598;1265;21962;-82
2023/08/05 08:33:18;;;;;;;8.30;4.80;;;;;;;21.08;62.29;99995.37;111077;1260;22711;-83
2023/08/05 08:36:12;;;;;;;7.60;5.30;;;;;;;21.06;62.33;99999.73;110835;1259;23809;-83
2023/08/05 08:39:21;;;;;;;7.40;3.90;;;;;;;21.05;62.23;99998.60;110980;1260;21979;-82
2023/08/05 08:42:16;;;;;;;9.90;4.70;;;;;;;20.98;61.99;99992.81;110541;1264;21969;-83
2023/08/05 08:45:17;;;;;;;4.80;4.10;;;;;;;20.94;61.97;99988.08;109799;1266;24288;-83
2023/08/05 08:48:27;;;;;;;8.70;4.40;;;;;;;20.91;62.10;99984.63;110597;1265;21960;-83
2023/08/05 08:51:09;;;;;;;11.30;5.20;;;;;;;20.94;62.06;99987.23;109731;1270;22267;-83
2023/08/05 08:54:27;;;;;;;9.30;4.60;;;;;;;20.96;61.91;99988.64;109313;1274;22699;-83
2023/08/05 08:57:01;;;;;;;9.10;5.20;;;;;;;20.96;61.85;99985.73;109348;1274;21994;-84
2023/08/05 08:59:42;;;;;;;7.10;4.30;;;;;;;20.99;61.76;99982.18;109317;1271;22039;-82
2023/08/05 09:02:34;;;;;;;7.10;4.30;;;;;;;20.99;61.73;99982.02;109907;1267;21981;-83
2023/08/05 09:05:13;;;;;;;8.50;4.80;;;;;;;20.99;61.77;99980.16;110084;1267;21944;-81
2023/08/05 09:07:56;;;;;;;10.90;4.60;;;;;;;21.02;61.83;99979.02;109936;1266;23618;-83
2023/08/05 09:10:50;;;;;;;9.40;6.10;;;;;;;21.04;61.84;99979.20;110478;1262;21965;-83
2023/08/05 09:13:29;;;;;;;6.80;4.90;;;;;;;21.07;61.81;99976.34;110901;1256;21953;-83
2023/08/05 09:16:30;;;;;;;10.10;6.10;;;;;;;21.09;61.78;99968.56;110981;1259;22054;-82
2023/08/05 09:19:31;;;;;;;9.50;5.40;;;;;;;21.04;61.79;99966.64;110294;1266;23589;-82
2023/08/05 09:22:32;;;;;;;;;;;;;;;;;;;;;
2023/08/05 09:25:30;;;;;;;10.00;7.40;;;;;;;21.09;62.08;99965.37;109870;1258;23038;-84
2023/08/05 09:28:16;;;;;;;6.80;5.00;;;;;;;21.15;62.05;99967.48;109292;1276;21985;-82
2023/08/05 09:31:22;;;;;;;6.70;5.40;;;;;;;21.23;62.00;99968.00;109246;1276;22003;-82
2023/08/05 09:34:15;;;;;;;6.60;5.80;;;;;;;21.29;62.21;99967.66;109323;1271;23719;-82
2023/08/05 09:37:18;;;;;;;9.20;4.80;;;;;;;21.43;62.25;99956.86;109484;1274;22030;-82
2023/08/05 09:40:28;;;;;;;5.00;4.50;;;;;;;21.56;61.78;99957.69;109490;1274;22002;-82
2023/08/05 09:43:13;;;;;;;6.40;4.20;;;;;;;21.67;61.41;99967.10;109549;1270;21985;-83
2023/08/05 09:46:11;;;;;;;8.80;5.40;;;;;;;21.80;61.07;99972.86;109990;1264;21996;-82
2023/08/05 09:48:49;;;;;;;6.90;6.10;;;;;;;21.85;60.42;99974.90;110779;1261;22763;-81
2023/08/05 09:51:38;;;;;;;7.40;5.50;;;;;;;21.83;60.04;99976.27;110302;1267;21988;-82
2023/08/05 09:54:32;;;;;;;7.20;6.40;;;;;;;21.79;59.72;99976.64;109693;1271;22270;-83
2023/08/05 09:57:36;;;;;;;22.70;5.00;;;;;;;21.69;59.71;99977.75;110241;1265;22029;-82
2023/08/05 10:00:28;;;;;;;5.40;4.20;;;;;;;21.61;60.05;99973.52;110524;1264;22984;-82
2023/08/05 10:03:13;;;;;;;6.10;4.90;;;;;;;21.60;60.23;99974.27;109891;1271;23836;-82
2023/08/05 10:06:15;;;;;;;8.10;5.60;;;;;;;21.61;60.23;99980.03;109749;1272;22003;-81
2023/08/05 10:09:02;;;;;;;7.00;4.00;;;;;;;21.60;60.15;99977.98;109793;1266;22365;-83
2023/08/05 10:11:52;;;;;;;5.90;4.10;;;;;;;21.60;60.38;99980.73;110503;1263;21996;-86
2023/08/05 10:14:43;;;;;;;10.80;4.90;;;;;;;21.54;60.32;99981.17;110920;1263;21973;-83
2023/08/05 10:17:58;;;;;;;8.80;4.50;;;;;;;21.56;60.28;99991.44;110631;1263;21964;-84
2023/08/05 10:21:09;;;;;;;6.40;4.80;;;;;;;21.51;60.27;99994.81;110957;1256;22026;-85
2023/08/05 10:25:00;;;;;;;;;;;;;;;;;;;;;
2023/08/05 10:28:42;;;;;;;7.10;4.10;;;;;;;21.39;60.63;99996.89;111050;1261;22070;-83
2023/08/05 10:31:28;;;;;;;7.20;4.40;;;;;;;21.40;60.63;99990.96;110990;1261;23023;-80
2023/08/05 10:34:21;;;;;;;;;;;;;;;21.41;60.58;99985.71;111257;1261;22934;-83
2023/08/05 10:38:15;;;;;;;7.50;4.90;;;;;;;21.26;60.62;99977.95;111104;1261;22356;-85
2023/08/05 10:41:42;;;;;;;6.60;5.00;;;;;;;21.15;60.89;99981.63;109740;1270;21977;-83
2023/08/05 10:44:46;;;;;;;6.30;5.30;;;;;;;21.15;61.11;99984.42;109537;1267;22435;-84
2023/08/05 10:48:20;;;;;;;;;;;;;;;;;;;;;
2023/08/05 10:52:51;;;;;;;8.90;5.40;;;;;;;21.09;61.33;99972.46;108886;1282;22026;-84
2023/08/05 10:56:46;;;;;;;10.90;5.40;;;;;;;21.04;61.61;99965.91;111707;1255;22058;-83
2023/08/05 11:00:48;;;;;;;;;;;;;;;;;;;;;
2023/08/05 11:05:13;;;;;;;6.50;4.10;;;;;;;21.12;61.93;99969.01;110124;1271;22989;-82
2023/08/05 11:08:30;;;;;;;6.30;4.10;;;;;;;21.16;61.94;99973.77;109466;1276;24412;-82
2023/08/05 11:12:21;;;;;;;5.00;3.90;;;;;;;21.15;61.67;99962.02;109358;1276;22003;-82
2023/08/05 11:15:47;;;;;;;6.50;3.80;;;;;;;21.19;61.61;99968.53;109394;1276;23669;-83
2023/08/05 11:18:57;;;;;;;5.40;4.40;;;;;;;21.21;61.65;99970.34;109338;1276;23039;-82
2023/08/05 11:22:09;;;;;;;6.30;4.80;;;;;;;21.18;61.64;99967.74;109323;1276;21986;-82
2023/08/05 11:26:01;;;;;;;8.90;3.80;;;;;;;21.15;61.55;99967.52;109436;1276;23637;-81
2023/08/05 11:30:02;;;;;;;9.60;4.60;;;;;;;21.16;61.37;99969.89;109424;1276;21979;-82
2023/08/05 11:33:10;;;;;;;9.80;4.00;;;;;;;21.14;61.39;99969.91;108896;1281;21991;-83
2023/08/05 11:36:06;;;;;;;6.40;3.90;;;;;;;21.13;61.47;99971.52;109295;1274;22403;-82
2023/08/05 11:39:45;;;;;;;7.00;4.00;;;;;;;21.16;61.54;99976.11;109648;1273;21855;-81
2023/08/05 11:43:52;;;;;;;;;;;;;;;;;;;;;
2023/08/05 11:51:05;;;;;;;4.40;4.00;;;;;;;21.28;61.52;99970.58;109541;1274;21996;-83
2023/08/05 11:54:26;;;;;;;7.50;6.70;;;;;;;21.35;61.77;99967.65;109355;1277;21980;-81
2023/08/05 11:57:43;;;;;;;12.50;5.70;;;;;;;21.38;61.63;99960.13;109506;1276;22456;-81
2023/08/05 12:01:24;;;;;;;7.70;5.40;;;;;;;21.40;61.48;99953.42;109380;1276;22249;-81
2023/08/05 12:04:11;;;;;;;7.30;4.60;;;;;;;21.43;61.60;99948.02;109431;1276;23646;-80
2023/08/05 12:07:19;;;;;;;7.50;5.10;;;;;;;21.46;61.70;99944.59;109187;1280;22103;-81
2023/08/05 12:10:38;;;;;;;;;;;;;;;;;;;;;
2023/08/05 12:19:05;;;;;;;5.80;4.40;;;;;;;21.36;61.82;99929.16;108625;1280;21999;-80
2023/08/05 12:22:25;;;;;;;4.70;4.30;;;;;;;21.38;62.00;99928.21;108142;1292;22007;-79
2023/08/05 12:26:15;;;;;;;7.00;5.30;;;;;;;21.39;61.85;99930.79;108029;1292;23680;-81
2023/08/05 12:29:19;;;;;;;6.90;5.80;;;;;;;21.38;61.55;99929.89;107698;1298;23136;-81
2023/08/05 12:33:02;;;;;;;6.20;5.60;;;;;;;21.34;61.55;99929.52;107784;1294;22050;-80
2023/08/05 12:35:53;;;;;;;6.20;5.00;;;;;;;21.26;61.83;99927.39;107778;1293;23776;-81
2023/08/05 12:46:50;;;;;;;7.40;6.70;;;;;;;21.26;62.23;99928.30;107872;1296;23663;-81
2023/08/05 12:50:20;;;;;;;5.00;4.50;;;;;;;21.25;62.25;99928.21;108126;1295;22005;-82
2023/08/05 12:54:03;;;;;;;;;;;;;;;;;;;;;
2023/08/05 12:58:05;;;;;;;11.90;4.80;;;;;;;21.20;62.33;99920.34;109042;1281;23702;-81
2023/08/05 13:02:23;;;;;;;5.00;4.40;;;;;;;21.15;62.21;99926.65;109046;1281;24318;-81
2023/08/05 13:10:38;;;;;;;3.80;3.20;;;;;;;20.96;62.50;99913.83;108650;1290;23779;-81
2023/08/05 13:14:20;;;;;;;2.60;2.30;;;;;;;20.79;62.63;99907.02;108933;1283;21998;-79
2023/08/05 13:17:30;;;;;;;4.80;3.20;;;;;;;20.68;62.45;99904.08;108828;1283;22006;-80
2023/08/05 13:20:24;;;;;;;4.40;2.60;;;;;;;20.63;62.61;99900.57;108328;1290;22086;-80
2023/08/05 13:23:31;;;;;;;6.20;2.80;;;;;;;20.59;62.69;99898.95;108029;1293;22247;-79
2023/08/05 13:26:29;;;;;;;3.10;2.40;;;;;;;20.57;62.42;99896.82;107906;1292;22000;-82
2023/08/05 13:29:39;;;;;;;5.80;2.80;;;;;;;20.53;62.38;99880.34;108153;1292;22016;-81
2023/08/05 13:32:53;;;;;;;5.10;3.40;;;;;;;20.60;62.25;99890.73;108421;1292;23755;-81
2023/08/05 13:35:44;;;;;;;4.20;2.70;;;;;;;20.63;62.23;99891.22;108236;1292;22767;-81
2023/08/05 13:38:57;;;;;;;8.70;2.90;;;;;;;20.62;61.81;99882.82;108297;1291;22599;-83
2023/08/05 13:42:06;;;;;;;2.30;1.90;;;;;;;20.59;61.70;99877.23;108877;1282;21989;-80
2023/08/05 13:44:46;;;;;;;3.30;2.10;;;;;;;20.60;61.55;99873.05;109242;1279;21995;-80
2023/08/05 13:47:36;;;;;;;2.20;2.00;;;;;;;20.60;61.38;99867.40;109763;1272;23100;-80
2023/08/05 13:50:16;;;;;;;4.50;2.00;;;;;;;20.63;61.18;99872.85;109784;1272;22419;-81
2023/08/05 13:52:54;;;;;;;3.60;2.00;;;;;;;20.65;61.15;99876.88;109676;1272;22010;-80
2023/08/05 13:56:10;;;;;;;4.10;2.70;;;;;;;20.68;60.97;99876.09;109749;1271;24406;-81
2023/08/05 13:59:16;;;;;;;4.70;2.50;;;;;;;20.71;60.93;99880.23;109968;1269;22562;-81
2023/08/05 14:02:26;;;;;;;6.60;2.30;;;;;;;20.74;60.85;99876.63;109612;1274;21853;-80
2023/08/05 14:05:02;;;;;;;3.20;2.30;;;;;;;20.76;60.75;99876.33;109177;1278;21989;-80
2023/08/05 14:08:31;;;;;;;3.10;2.60;;;;;;;20.77;60.62;99871.39;109791;1277;21996;-81
2023/08/05 14:11:19;;;;;;;5.40;2.70;;;;;;;20.74;60.87;99869.76;109822;1273;22006;-81
2023/08/05 14:14:11;;;;;;;4.10;2.70;;;;;;;20.74;61.05;99870.94;109777;1273;21989;-80
2023/08/05 14:16:53;;;;;;;6.30;2.80;;;;;;;20.77;61.06;99874.30;109529;1273;21991;-80
2023/08/05 14:19:56;;;;;;;4.60;3.30;;;;;;;20.75;61.15;99875.66;109608;1273;21985;-81
2023/08/05 14:22:48;;;;;;;4.50;3.30;;;;;;;20.72;61.13;99873.27;109758;1273;22746;-82
2023/08/05 14:25:41;;;;;;;4.60;2.90;;;;;;;20.70;60.83;99867.64;109487;1275;23899;-80
2023/08/05 14:28:35;;;;;;;3.60;2.50;;;;;;;20.67;60.50;99862.80;109551;1273;21958;-81
2023/08/05 14:31:37;;;;;;;4.90;2.90;;;;;;;20.61;60.21;99858.63;109935;1271;21940;-83
2023/08/05 14:34:46;;;;;;;6.10;3.00;;;;;;;20.49;59.95;99850.71;109479;1277;22021;-81
2023/08/05 14:38:37;;;;;;;6.60;3.70;;;;;;;20.43;59.73;99863.54;109511;1278;21996;-80
2023/08/05 14:42:20;;;;;;;5.50;3.80;;;;;;;20.27;60.26;99865.48;109459;1283;22012;-81
2023/08/05 14:46:14;;;;;;;3.90;2.30;;;;;;;20.11;60.96;99864.38;108871;1289;21905;-84
2023/08/05 14:49:46;;;;;;;3.30;2.80;;;;;;;20.01;61.31;99857.48;108884;1289;22239;-84
2023/08/05 14:52:51;;;;;;;5.40;3.60;;;;;;;19.91;61.56;99840.67;108645;1284;23056;-82
2023/08/05 14:55:33;;;;;;;5.70;3.40;;;;;;;19.99;61.78;99852.19;108619;1286;21997;-81
2023/08/05 14:58:37;;;;;;;6.90;4.20;;;;;;;19.96;62.02;99848.18;108557;1287;21972;-79
2023/08/05 15:01:36;;;;;;;4.50;3.90;;;;;;;19.88;62.42;99845.80;108120;1293;22013;-79
2023/08/05 15:04:28;;;;;;;5.40;4.00;;;;;;;19.82;63.21;99837.67;108190;1289;22509;-81
2023/08/05 15:07:25;;;;;;;5.70;4.30;;;;;;;19.80;63.82;99838.17;108520;1289;22463;-83